Etusivu
METAR-TAF:

METAR-TAF

Lentoasemat :

Svolværin lentoasema

Svolvær, Norja

Leveyspiiri: 68-15N, Pituuspiiri: 014-40E, korkeus merenpinnasta: 0 m

Tämänhetkinen sää

Tämä raportti tehtiin 32 minuuttia sitten, kello 18.50 UTC
Tuuli 13 kn pohjoisesta
Lämpötila 9°C
Kosteus 61%
Ilmanpaine 1008 hPa
Näkyvyys 10 km tai enemmän
ei pilviä alle 1500 m:ssä eikä cumulonimbus-pilviä

METAR: ENSH 241850Z 01013KT CAVOK 09/02 Q1008 RMK WIND 150FT 36018KT

Aika: 21:22 (19:22 UTC)

Sääennuste

Tämä raportti tehtiin 2 tuntia ja 22 minuuttia sitten, kello 17.00 UTC
Ennuste voimassa 24. päivästä klo 18 UTC - 24. päivään klo 21 UTC
Tuuli 10 kn idästä
Näkyvyys 10 km tai enemmän
Hajanaisia pilviä 5000 ft:n korkeudessa
Tulossa
24. päivästä klo 18 UTC - 24. päivään klo 20 UTC
Tuuli 10 kn pohjoisesta

TAF: ENSH 241700Z 2418/2421 09010KT 9999 SCT050 BECMG 2418/2420 01010KT

Säähavainnot ja -ennusteet yli 4000 lentoasemalta (METAR- ja TAF-raportit).

Käytössä olevat sääasemat on merkitty karttaan keltaisilla ja punaisilla pisteillä.

Aseta hiiri pisteen päälle nähdäksesi sääaseman nimen.

Klikkaa sitten nähdäksesi säähavainnot ja -ennusteet.

Kartan vaihtaminen: klikkaa mustalla rastilla varustettuja vihreitä pisteitä, niin voit zoomata sisään; viivalla varustettua vihreää pistettä, niin voit zoomata ulos tai vihreitä nuolia, niin pääset viereisille kartoille.


METAR-TAF: